createdAt,value
2022-08-26T00:01:24.224Z,20.85
2022-08-26T00:03:32.367Z,20.88
2022-08-26T00:05:35.350Z,20.91
2022-08-26T00:07:38.233Z,20.80
2022-08-26T00:09:40.965Z,20.84
2022-08-26T00:11:48.004Z,20.83
2022-08-26T00:13:50.801Z,20.82
2022-08-26T00:15:53.889Z,20.82
2022-08-26T00:17:57.951Z,20.76
2022-08-26T00:20:00.710Z,20.80
2022-08-26T00:22:03.398Z,20.72
2022-08-26T00:24:06.360Z,20.73
2022-08-26T00:26:09.241Z,20.69
2022-08-26T00:28:14.931Z,20.57
2022-08-26T00:30:24.819Z,20.59
2022-08-26T00:32:29.454Z,20.60
2022-08-26T00:34:33.697Z,20.51
2022-08-26T00:36:36.387Z,20.53
2022-08-26T00:38:39.487Z,20.52
2022-08-26T00:40:48.182Z,20.52
2022-08-26T00:42:50.962Z,20.55
2022-08-26T00:44:53.695Z,20.55
2022-08-26T00:47:01.092Z,20.64
2022-08-26T00:49:11.710Z,20.54
2022-08-26T00:51:20.888Z,20.51
2022-08-26T00:53:27.945Z,20.47
2022-08-26T00:55:37.873Z,20.38
2022-08-26T00:57:41.118Z,20.36
2022-08-26T00:59:46.446Z,20.28
2022-08-26T01:01:49.486Z,20.35
2022-08-26T01:03:52.288Z,20.32
2022-08-26T01:05:58.073Z,20.21
2022-08-26T01:08:02.109Z,20.19
2022-08-26T01:10:10.284Z,20.07
2022-08-26T01:12:13.682Z,19.83
2022-08-26T01:14:17.988Z,19.86
2022-08-26T01:16:24.864Z,19.84
2022-08-26T01:18:28.571Z,19.87
2022-08-26T01:20:39.086Z,19.81
2022-08-26T01:22:52.323Z,19.72
2022-08-26T01:24:55.293Z,19.63
2022-08-26T01:27:01.578Z,19.63
2022-08-26T01:29:08.377Z,19.58
2022-08-26T01:31:17.447Z,19.63
2022-08-26T01:33:23.672Z,19.74
2022-08-26T01:35:26.656Z,19.79
2022-08-26T01:37:35.266Z,19.89
2022-08-26T01:39:41.549Z,19.84
2022-08-26T01:41:45.371Z,19.76
2022-08-26T01:43:51.615Z,19.82
2022-08-26T01:45:56.878Z,19.73
2022-08-26T01:48:02.894Z,19.74
2022-08-26T01:50:10.740Z,19.66
2022-08-26T01:52:17.698Z,19.67
2022-08-26T01:54:20.781Z,19.68
2022-08-26T01:56:33.293Z,19.70
2022-08-26T01:58:44.368Z,19.73
2022-08-26T02:00:47.666Z,19.74
2022-08-26T02:03:16.282Z,19.74
2022-08-26T02:05:22.425Z,19.77
2022-08-26T02:07:26.697Z,19.68
2022-08-26T02:09:29.827Z,19.72
2022-08-26T02:11:36.848Z,19.66
2022-08-26T02:13:44.662Z,19.58
2022-08-26T02:15:47.992Z,19.54
2022-08-26T02:17:52.692Z,19.65
2022-08-26T02:19:56.389Z,19.71
2022-08-26T02:22:01.548Z,19.78
2022-08-26T02:24:17.266Z,19.70
2022-08-26T02:26:22.985Z,19.65
2022-08-26T02:28:29.952Z,19.55
2022-08-26T02:30:34.417Z,19.61
2022-08-26T02:32:37.174Z,19.58
2022-08-26T02:34:42.842Z,19.57
2022-08-26T02:36:45.609Z,19.56
2022-08-26T02:38:49.145Z,19.52
2022-08-26T02:40:54.856Z,19.66
2022-08-26T02:42:58.254Z,19.64
2022-08-26T02:45:04.508Z,19.73
2022-08-26T02:47:08.610Z,19.82
2022-08-26T02:49:11.300Z,19.76
2022-08-26T02:51:14.070Z,19.67
2022-08-26T02:53:22.010Z,19.55
2022-08-26T02:55:27.626Z,19.53
2022-08-26T02:57:31.998Z,19.40
2022-08-26T02:59:35.931Z,19.45
2022-08-26T03:01:40.415Z,19.42
2022-08-26T03:03:43.244Z,19.29
2022-08-26T03:05:45.937Z,19.34
2022-08-26T03:07:49.784Z,19.26
2022-08-26T03:09:53.565Z,19.28
2022-08-26T03:11:56.261Z,19.18
2022-08-26T03:13:59.080Z,19.08
2022-08-26T03:16:02.610Z,19.04
2022-08-26T03:18:07.126Z,19.02
2022-08-26T03:20:10.565Z,19.08
2022-08-26T03:22:16.327Z,19.08
2022-08-26T03:24:18.975Z,18.90
2022-08-26T03:26:21.744Z,18.78
2022-08-26T03:28:24.534Z,18.83
2022-08-26T03:30:44.194Z,18.67
2022-08-26T03:32:48.222Z,18.66
2022-08-26T03:34:52.840Z,18.78
2022-08-26T03:36:55.481Z,18.79
2022-08-26T03:38:59.078Z,18.82
2022-08-26T03:41:02.051Z,18.90
2022-08-26T03:43:07.281Z,18.95
2022-08-26T03:45:15.322Z,18.85
2022-08-26T03:47:18.068Z,18.81
2022-08-26T03:49:20.779Z,18.83
2022-08-26T03:51:24.873Z,18.81
2022-08-26T03:53:28.030Z,18.70
2022-08-26T03:55:33.037Z,18.60
2022-08-26T03:57:36.014Z,18.47
2022-08-26T03:59:38.868Z,18.51
2022-08-26T04:01:44.306Z,18.58
2022-08-26T04:03:59.981Z,18.66
2022-08-26T04:06:03.510Z,18.60
2022-08-26T04:08:08.386Z,18.68
2022-08-26T04:10:15.583Z,18.53
2022-08-26T04:12:23.059Z,18.54
2022-08-26T04:14:28.594Z,18.55
2022-08-26T04:16:32.349Z,18.56
2022-08-26T04:18:37.951Z,18.59
2022-08-26T04:20:49.163Z,18.46
2022-08-26T04:22:52.016Z,18.33
2022-08-26T04:24:56.103Z,18.29
2022-08-26T04:26:58.817Z,18.31
2022-08-26T04:29:02.408Z,18.51
2022-08-26T04:31:05.209Z,18.41
2022-08-26T04:33:13.046Z,18.32
2022-08-26T04:35:16.165Z,18.43
2022-08-26T04:37:19.674Z,18.39
2022-08-26T04:39:24.359Z,18.52
2022-08-26T04:41:29.858Z,18.64
2022-08-26T04:43:34.305Z,18.64
2022-08-26T04:45:37.452Z,18.72
2022-08-26T04:47:40.510Z,18.67
2022-08-26T04:49:43.627Z,18.71
2022-08-26T04:51:46.281Z,18.59
2022-08-26T04:53:49.942Z,18.68
2022-08-26T04:55:55.345Z,18.59
2022-08-26T04:57:59.673Z,18.69
2022-08-26T05:00:02.480Z,18.54
2022-08-26T05:02:06.845Z,18.66
2022-08-26T05:04:09.744Z,18.66
2022-08-26T05:06:13.095Z,18.69
2022-08-26T05:08:16.784Z,18.95
2022-08-26T05:10:19.725Z,19.01
2022-08-26T05:12:23.224Z,19.11
2022-08-26T05:14:27.508Z,19.03
2022-08-26T05:16:30.273Z,18.89
2022-08-26T05:18:34.104Z,18.68
2022-08-26T05:20:40.939Z,18.71
2022-08-26T05:22:43.672Z,18.64
2022-08-26T05:24:46.671Z,18.57
2022-08-26T05:26:49.519Z,18.77
2022-08-26T05:28:54.948Z,18.99
2022-08-26T05:30:59.392Z,19.07
2022-08-26T05:33:03.570Z,19.04
2022-08-26T05:35:08.925Z,19.10
2022-08-26T05:37:13.662Z,18.94
2022-08-26T05:39:16.465Z,19.01
2022-08-26T05:41:24.770Z,19.02
2022-08-26T05:43:27.464Z,18.78
2022-08-26T05:45:32.147Z,18.57
2022-08-26T05:47:36.141Z,18.44
2022-08-26T05:49:43.748Z,18.15
2022-08-26T05:51:54.156Z,18.29
2022-08-26T05:53:57.477Z,18.39
2022-08-26T05:56:01.025Z,18.42
2022-08-26T05:58:03.723Z,18.56
2022-08-26T06:00:07.164Z,18.69
2022-08-26T06:02:10.463Z,18.88
2022-08-26T06:04:14.472Z,18.89
2022-08-26T06:06:20.805Z,18.83
2022-08-26T06:08:30.288Z,18.85
2022-08-26T06:10:33.455Z,18.79
2022-08-26T06:12:36.141Z,18.64
2022-08-26T06:14:38.895Z,18.77
2022-08-26T06:16:44.992Z,18.72
2022-08-26T06:18:49.045Z,18.89
2022-08-26T06:20:57.803Z,18.83
2022-08-26T06:23:18.585Z,19.06
2022-08-26T06:25:38.641Z,19.12
2022-08-26T06:27:41.305Z,19.04
2022-08-26T06:29:44.037Z,19.08
2022-08-26T06:31:47.696Z,19.21
2022-08-26T06:33:50.889Z,19.42
2022-08-26T06:35:54.973Z,19.58
2022-08-26T06:37:57.719Z,19.53
2022-08-26T06:40:00.478Z,19.78
2022-08-26T06:42:03.410Z,20.08
2022-08-26T06:44:09.109Z,20.29
2022-08-26T06:46:14.249Z,20.17
2022-08-26T06:48:19.545Z,20.25
2022-08-26T06:50:22.276Z,20.30
2022-08-26T06:52:26.579Z,20.36
2022-08-26T06:54:31.825Z,20.45
2022-08-26T06:56:37.313Z,20.20
2022-08-26T06:58:41.424Z,20.27
2022-08-26T07:00:47.253Z,20.22
2022-08-26T07:02:50.922Z,20.38
2022-08-26T07:04:53.681Z,20.54
2022-08-26T07:07:00.207Z,20.68
2022-08-26T07:09:06.810Z,20.71
2022-08-26T07:11:12.939Z,20.76
2022-08-26T07:13:16.324Z,20.75
2022-08-26T07:15:33.599Z,21.30
2022-08-26T07:17:36.357Z,20.90
2022-08-26T07:19:39.339Z,21.38
2022-08-26T07:21:42.512Z,21.33
2022-08-26T07:23:45.279Z,21.77
2022-08-26T07:25:50.954Z,22.06
2022-08-26T07:27:54.191Z,22.34
2022-08-26T07:29:58.361Z,22.85
2022-08-26T07:32:01.423Z,23.07
2022-08-26T07:34:06.254Z,23.55
2022-08-26T07:36:10.963Z,24.06
2022-08-26T07:38:13.921Z,23.86
2022-08-26T07:40:16.697Z,24.10
2022-08-26T07:42:21.440Z,24.20
2022-08-26T07:44:24.378Z,23.93
2022-08-26T07:46:30.438Z,24.56
2022-08-26T07:48:33.315Z,24.35
2022-08-26T07:50:49.992Z,23.75
2022-08-26T07:52:53.349Z,24.91
2022-08-26T07:54:58.071Z,24.83
2022-08-26T07:57:01.485Z,25.39
2022-08-26T07:59:13.730Z,25.41
2022-08-26T08:01:16.908Z,25.87
2022-08-26T08:03:20.520Z,25.40
2022-08-26T08:05:23.969Z,25.40
2022-08-26T08:07:44.397Z,25.46
2022-08-26T08:09:49.454Z,25.35
2022-08-26T08:11:52.546Z,25.30
2022-08-26T08:13:56.302Z,26.03
2022-08-26T08:16:00.694Z,26.43
2022-08-26T08:18:03.353Z,26.93
2022-08-26T08:20:09.245Z,26.91
2022-08-26T08:22:17.852Z,26.54
2022-08-26T08:24:22.563Z,25.95
2022-08-26T08:26:27.132Z,25.80
2022-08-26T08:28:29.940Z,26.41
2022-08-26T08:30:32.783Z,25.87
2022-08-26T08:32:39.397Z,25.32
2022-08-26T08:36:46.200Z,24.47
2022-08-26T08:38:48.879Z,24.82
2022-08-26T08:40:51.898Z,24.56
2022-08-26T08:43:00.661Z,25.07
2022-08-26T08:45:08.230Z,25.15
2022-08-26T08:47:18.873Z,25.87
2022-08-26T08:49:25.843Z,26.53
2022-08-26T08:51:39.752Z,27.14
2022-08-26T08:53:45.407Z,25.92
2022-08-26T08:56:12.099Z,25.94
2022-08-26T08:58:19.184Z,25.96
2022-08-26T09:00:30.246Z,26.46
2022-08-26T09:02:40.177Z,26.47
2022-08-26T09:05:04.402Z,26.53
2022-08-26T09:07:11.404Z,27.72
2022-08-26T09:09:21.450Z,28.34
2022-08-26T09:11:24.609Z,28.89
2022-08-26T09:13:29.149Z,26.91
2022-08-26T09:15:47.567Z,26.95
2022-08-26T09:17:59.882Z,26.43
2022-08-26T09:20:13.471Z,26.98
2022-08-26T09:22:29.913Z,26.34
2022-08-26T09:24:41.634Z,25.78
2022-08-26T09:26:48.317Z,25.83
2022-08-26T09:28:57.181Z,25.84
2022-08-26T09:31:11.467Z,25.97
2022-08-26T09:33:19.145Z,26.33
2022-08-26T09:35:30.099Z,26.73
2022-08-26T09:37:42.444Z,26.69
2022-08-26T09:39:45.338Z,26.69
2022-08-26T09:42:03.498Z,27.56
2022-08-26T09:44:15.678Z,27.81
2022-08-26T09:46:24.175Z,28.95
2022-08-26T09:48:35.551Z,29.67
2022-08-26T09:50:53.150Z,29.73
2022-08-26T09:53:09.858Z,29.32
2022-08-26T09:55:22.433Z,29.34
2022-08-26T09:57:28.971Z,30.05
2022-08-26T09:59:31.820Z,30.16
2022-08-26T10:01:36.638Z,30.75
2022-08-26T10:03:40.975Z,31.81
2022-08-26T10:05:48.280Z,32.18
2022-08-26T10:07:52.176Z,32.47
2022-08-26T10:09:55.666Z,32.99
2022-08-26T10:12:02.807Z,33.62
2022-08-26T10:14:13.816Z,34.34
2022-08-26T10:16:20.345Z,34.43
2022-08-26T10:18:28.760Z,34.12
2022-08-26T10:20:37.187Z,31.95
2022-08-26T10:22:47.894Z,32.42
2022-08-26T10:24:58.508Z,34.33
2022-08-26T10:27:06.563Z,32.12
2022-08-26T10:29:14.657Z,30.91
2022-08-26T10:31:28.226Z,31.15
2022-08-26T10:33:31.855Z,32.15
2022-08-26T10:35:37.352Z,31.55
2022-08-26T10:37:47.251Z,31.25
2022-08-26T10:39:57.296Z,31.75
2022-08-26T10:42:06.363Z,30.93
2022-08-26T10:44:15.908Z,30.60
2022-08-26T10:46:22.469Z,30.09
2022-08-26T10:48:36.633Z,30.30
2022-08-26T10:50:43.015Z,29.84
2022-08-26T10:52:58.683Z,29.46
2022-08-26T10:55:13.585Z,29.92
2022-08-26T10:57:24.562Z,30.30
2022-08-26T10:59:41.082Z,29.31
2022-08-26T11:01:51.075Z,29.56
2022-08-26T11:04:04.281Z,29.71
2022-08-26T11:06:21.089Z,29.78
2022-08-26T11:08:34.007Z,29.71
2022-08-26T11:11:04.112Z,29.47
2022-08-26T11:13:07.947Z,29.73
2022-08-26T11:15:13.294Z,29.56
2022-08-26T11:17:55.266Z,29.38
2022-08-26T11:20:03.299Z,29.40
2022-08-26T11:22:12.428Z,28.84
2022-08-26T11:25:00.834Z,28.56
2022-08-26T11:27:05.065Z,28.93
2022-08-26T11:29:14.541Z,28.87
2022-08-26T11:31:50.656Z,28.33
2022-08-26T11:33:56.546Z,28.07
2022-08-26T11:35:59.528Z,27.87
2022-08-26T11:38:26.327Z,28.04
2022-08-26T11:40:33.062Z,28.03
2022-08-26T11:42:40.874Z,27.61
2022-08-26T11:44:49.419Z,27.86
2022-08-26T11:46:57.897Z,27.51
2022-08-26T11:49:06.430Z,27.72
2022-08-26T11:51:12.537Z,27.45
2022-08-26T11:53:19.603Z,27.76
2022-08-26T11:55:25.639Z,28.08
2022-08-26T11:57:31.513Z,28.00
2022-08-26T11:59:39.777Z,28.02
2022-08-26T12:01:49.153Z,28.30
2022-08-26T12:03:53.536Z,28.29
2022-08-26T12:05:57.204Z,28.70
2022-08-26T12:08:04.878Z,28.74
2022-08-26T12:10:11.770Z,28.52
2022-08-26T12:12:17.124Z,28.38
2022-08-26T12:14:24.212Z,28.57
2022-08-26T12:16:28.695Z,28.81
2022-08-26T12:18:35.122Z,28.80
2022-08-26T12:20:53.834Z,28.93
2022-08-26T12:22:56.992Z,29.41
2022-08-26T12:25:01.715Z,29.85
2022-08-26T12:27:14.995Z,30.16
2022-08-26T12:29:28.127Z,30.32
2022-08-26T12:31:33.736Z,29.84
2022-08-26T12:33:37.502Z,29.97
2022-08-26T12:35:41.756Z,28.99
2022-08-26T12:37:46.963Z,28.98
2022-08-26T12:39:49.991Z,29.28
2022-08-26T12:41:54.412Z,29.06
2022-08-26T12:43:57.240Z,29.56
2022-08-26T12:46:01.530Z,30.04
2022-08-26T12:48:11.010Z,29.75
2022-08-26T12:50:19.589Z,29.63
2022-08-26T12:52:30.756Z,29.22
2022-08-26T12:54:54.792Z,29.27
2022-08-26T12:57:10.862Z,29.08
2022-08-26T12:59:23.211Z,29.31
2022-08-26T13:01:27.418Z,29.51
2022-08-26T13:03:44.758Z,29.25
2022-08-26T13:05:47.696Z,29.37
2022-08-26T13:08:10.472Z,28.52
2022-08-26T13:10:38.770Z,28.86
2022-08-26T13:12:42.530Z,28.55
2022-08-26T13:14:45.277Z,28.78
2022-08-26T13:16:48.265Z,28.72
2022-08-26T13:18:54.114Z,28.32
2022-08-26T13:20:57.403Z,28.19
2022-08-26T13:23:00.235Z,28.26
2022-08-26T13:25:03.152Z,28.16
2022-08-26T13:27:09.515Z,28.01
2022-08-26T13:29:13.725Z,27.82
2022-08-26T13:31:17.447Z,28.04
2022-08-26T13:33:22.672Z,28.21
2022-08-26T13:35:26.583Z,28.37
2022-08-26T13:37:34.384Z,28.33
2022-08-26T13:39:40.468Z,28.55
2022-08-26T13:41:43.468Z,28.56
2022-08-26T13:43:47.590Z,28.49
2022-08-26T13:45:51.541Z,28.47
2022-08-26T13:47:54.314Z,28.12
2022-08-26T13:49:57.243Z,27.98
2022-08-26T13:51:59.970Z,27.76
2022-08-26T13:54:02.990Z,27.83
2022-08-26T13:56:10.833Z,27.78
2022-08-26T13:58:14.203Z,27.90
2022-08-26T14:00:19.590Z,27.73
2022-08-26T14:02:22.446Z,27.81
2022-08-26T14:04:27.266Z,27.64
2022-08-26T14:06:30.360Z,27.48
2022-08-26T14:08:33.262Z,27.58
2022-08-26T14:10:36.793Z,27.61
2022-08-26T14:12:40.756Z,27.58
2022-08-26T14:14:43.513Z,27.59
2022-08-26T14:16:59.830Z,27.28
2022-08-26T14:19:05.683Z,27.33
2022-08-26T14:21:09.149Z,27.38
2022-08-26T14:23:20.664Z,27.26
2022-08-26T14:25:23.762Z,27.16
2022-08-26T14:27:27.245Z,27.17
2022-08-26T14:29:29.956Z,26.97
2022-08-26T14:31:33.387Z,26.78
2022-08-26T14:33:38.354Z,26.84
2022-08-26T14:35:48.809Z,26.92
2022-08-26T14:37:52.734Z,27.07
2022-08-26T14:39:55.409Z,27.10
2022-08-26T14:41:58.171Z,26.85
2022-08-26T14:44:03.002Z,26.93
2022-08-26T14:46:05.926Z,26.85
2022-08-26T14:48:08.928Z,26.85
2022-08-26T14:50:14.269Z,26.86
2022-08-26T14:52:17.652Z,26.94
2022-08-26T14:54:20.755Z,27.06
2022-08-26T14:56:23.881Z,27.02
2022-08-26T14:58:30.971Z,26.72
2022-08-26T15:00:38.162Z,26.53
2022-08-26T15:02:41.009Z,26.33
2022-08-26T15:04:43.889Z,26.30
2022-08-26T15:06:48.319Z,26.13
2022-08-26T15:08:51.074Z,25.85
2022-08-26T15:10:54.294Z,25.76
2022-08-26T15:12:57.012Z,25.51
2022-08-26T15:15:00.299Z,25.34
2022-08-26T15:17:02.954Z,25.38
2022-08-26T15:19:06.636Z,25.04
2022-08-26T15:21:09.388Z,24.77
2022-08-26T15:23:16.395Z,24.88
2022-08-26T15:25:20.418Z,24.91
2022-08-26T15:27:23.170Z,24.88
2022-08-26T15:29:25.974Z,24.76
2022-08-26T15:31:31.862Z,24.70
2022-08-26T15:33:35.044Z,24.73
2022-08-26T15:35:38.457Z,24.53
2022-08-26T15:37:43.129Z,24.43
2022-08-26T15:39:47.372Z,24.41
2022-08-26T15:41:50.168Z,24.47
2022-08-26T15:43:53.145Z,24.50
2022-08-26T15:45:56.517Z,24.37
2022-08-26T15:48:01.178Z,24.52
2022-08-26T15:50:14.212Z,24.53
2022-08-26T15:52:17.534Z,24.52
2022-08-26T15:54:23.067Z,24.49
2022-08-26T15:56:29.490Z,24.40
2022-08-26T15:58:32.191Z,24.25
2022-08-26T16:00:34.929Z,24.05
2022-08-26T16:02:37.696Z,24.20
2022-08-26T16:04:40.444Z,24.28
2022-08-26T16:06:43.738Z,24.27
2022-08-26T16:08:46.614Z,24.37
2022-08-26T16:10:51.230Z,24.13
2022-08-26T16:12:55.256Z,23.84
2022-08-26T16:14:57.994Z,23.64
2022-08-26T16:17:00.668Z,23.70
2022-08-26T16:19:07.403Z,23.27
2022-08-26T16:21:13.162Z,23.23
2022-08-26T16:23:17.327Z,22.98
2022-08-26T16:25:20.153Z,23.08
2022-08-26T16:27:23.242Z,22.65
2022-08-26T16:29:27.946Z,22.54
2022-08-26T16:31:30.744Z,22.34
2022-08-26T16:33:33.658Z,22.38
2022-08-26T16:35:36.453Z,22.24
2022-08-26T16:37:40.099Z,21.86
2022-08-26T16:39:45.231Z,21.82
2022-08-26T16:41:48.151Z,21.57
2022-08-26T16:43:51.456Z,21.37
2022-08-26T16:45:55.949Z,20.81
2022-08-26T16:47:59.074Z,20.54
2022-08-26T16:50:01.771Z,20.14
2022-08-26T16:52:05.353Z,19.74
2022-08-26T16:54:09.569Z,19.85
2022-08-26T16:56:13.609Z,19.73
2022-08-26T16:58:17.241Z,19.67
2022-08-26T17:00:27.777Z,19.46
2022-08-26T17:02:31.881Z,19.65
2022-08-26T17:04:34.736Z,19.54
2022-08-26T17:06:38.128Z,19.42
2022-08-26T17:08:42.331Z,19.69
2022-08-26T17:10:45.305Z,19.59
2022-08-26T17:12:48.385Z,19.44
2022-08-26T17:14:51.160Z,19.55
2022-08-26T17:16:53.890Z,19.35
2022-08-26T17:18:58.714Z,19.33
2022-08-26T17:21:03.058Z,19.46
2022-08-26T17:23:05.776Z,19.26
2022-08-26T17:25:12.672Z,19.18
2022-08-26T17:27:15.462Z,18.94
2022-08-26T17:29:18.219Z,19.20
2022-08-26T17:31:22.014Z,19.02
2022-08-26T17:33:25.325Z,18.98
2022-08-26T17:35:29.458Z,19.03
2022-08-26T17:37:32.236Z,18.81
2022-08-26T17:39:37.063Z,19.17
2022-08-26T17:41:40.919Z,18.82
2022-08-26T17:43:43.727Z,18.93
2022-08-26T17:45:46.876Z,18.73
2022-08-26T17:47:49.918Z,18.77
2022-08-26T17:49:52.639Z,18.76
2022-08-26T17:51:58.435Z,18.70
2022-08-26T17:54:02.009Z,18.82
2022-08-26T17:56:07.296Z,18.68
2022-08-26T17:58:11.480Z,18.52
2022-08-26T18:00:20.585Z,18.53
2022-08-26T18:02:23.967Z,18.71
2022-08-26T18:04:27.076Z,18.67
2022-08-26T18:06:30.467Z,18.58
2022-08-26T18:08:34.677Z,18.47
2022-08-26T18:10:37.392Z,18.52
2022-08-26T18:12:41.710Z,18.34
2022-08-26T18:14:44.719Z,18.34
2022-08-26T18:16:47.427Z,18.36
2022-08-26T18:18:53.262Z,18.45
2022-08-26T18:21:01.887Z,18.54
2022-08-26T18:23:04.791Z,18.76
2022-08-26T18:25:10.415Z,18.75
2022-08-26T18:27:15.834Z,18.83
2022-08-26T18:29:20.101Z,18.90
2022-08-26T18:31:23.123Z,18.89
2022-08-26T18:33:25.969Z,18.83
2022-08-26T18:35:30.266Z,18.72
2022-08-26T18:37:34.086Z,18.69
2022-08-26T18:39:36.955Z,18.74
2022-08-26T18:41:43.603Z,18.80
2022-08-26T18:43:46.251Z,18.83
2022-08-26T18:45:48.934Z,18.80
2022-08-26T18:47:51.672Z,18.67
2022-08-26T18:49:54.821Z,18.56
2022-08-26T18:51:57.595Z,18.56
2022-08-26T18:54:02.847Z,18.49
2022-08-26T18:56:05.570Z,18.37
2022-08-26T18:58:09.840Z,18.42
2022-08-26T19:00:14.680Z,18.33
2022-08-26T19:02:17.781Z,18.59
2022-08-26T19:04:21.998Z,18.60
2022-08-26T19:06:26.018Z,18.54
2022-08-26T19:08:28.807Z,18.47
2022-08-26T19:10:32.350Z,18.69
2022-08-26T19:12:36.278Z,18.72
2022-08-26T19:14:40.439Z,18.73
2022-08-26T19:16:44.919Z,18.73
2022-08-26T19:18:48.204Z,18.70
2022-08-26T19:20:50.970Z,18.75
2022-08-26T19:22:53.764Z,18.78
2022-08-26T19:24:56.565Z,18.81
2022-08-26T19:27:02.287Z,18.76
2022-08-26T19:29:05.084Z,18.78
2022-08-26T19:31:10.812Z,18.78
2022-08-26T19:33:14.493Z,18.77
2022-08-26T19:35:17.333Z,18.81
2022-08-26T19:37:21.071Z,18.83
2022-08-26T19:39:23.996Z,18.89
2022-08-26T19:41:34.178Z,18.94
2022-08-26T19:43:40.637Z,18.81
2022-08-26T19:45:43.808Z,18.81
2022-08-26T19:47:48.010Z,18.89
2022-08-26T19:49:54.053Z,18.69
2022-08-26T19:51:56.759Z,18.65
2022-08-26T19:54:01.728Z,18.75
2022-08-26T19:56:04.910Z,18.48
2022-08-26T19:58:07.971Z,18.43
2022-08-26T20:00:14.851Z,18.35
2022-08-26T20:02:18.083Z,18.14
2022-08-26T20:04:22.229Z,18.05
2022-08-26T20:06:25.130Z,18.03
2022-08-26T20:08:28.563Z,18.14
2022-08-26T20:10:35.187Z,18.23
2022-08-26T20:12:37.871Z,18.26
2022-08-26T20:14:40.643Z,18.25
2022-08-26T20:16:43.454Z,18.40
2022-08-26T20:19:04.311Z,18.36
2022-08-26T20:21:25.914Z,18.43
2022-08-26T20:23:29.338Z,18.35
2022-08-26T20:25:33.428Z,18.36
2022-08-26T20:27:38.285Z,18.37
2022-08-26T20:29:42.674Z,18.39
2022-08-26T20:31:46.235Z,18.33
2022-08-26T20:33:50.506Z,18.23
2022-08-26T20:35:53.318Z,18.31
2022-08-26T20:37:57.369Z,18.28
2022-08-26T20:40:00.754Z,18.16
2022-08-26T20:42:04.244Z,18.15
2022-08-26T20:44:09.325Z,18.21
2022-08-26T20:46:16.907Z,17.99
2022-08-26T20:48:21.608Z,17.93
2022-08-26T20:50:24.528Z,18.03
2022-08-26T20:52:27.474Z,18.13
2022-08-26T20:54:31.555Z,18.17
2022-08-26T20:56:34.483Z,18.17
2022-08-26T20:58:38.317Z,18.31
2022-08-26T21:00:41.340Z,18.33
2022-08-26T21:02:44.075Z,18.26
2022-08-26T21:04:46.901Z,18.20
2022-08-26T21:06:52.450Z,18.26
2022-08-26T21:08:57.020Z,18.20
2022-08-26T21:11:02.164Z,18.18
2022-08-26T21:13:08.078Z,18.17
2022-08-26T21:15:11.855Z,18.25
2022-08-26T21:17:14.626Z,18.08
2022-08-26T21:19:19.452Z,18.08
2022-08-26T21:21:25.197Z,18.11
2022-08-26T21:23:29.365Z,18.21
2022-08-26T21:25:32.252Z,18.21
2022-08-26T21:27:37.193Z,18.22
2022-08-26T21:29:39.894Z,18.22
2022-08-26T21:31:46.416Z,18.18
2022-08-26T21:33:50.843Z,18.25
2022-08-26T21:35:53.859Z,18.31
2022-08-26T21:37:56.710Z,18.32
2022-08-26T21:40:01.833Z,18.32
2022-08-26T21:42:04.952Z,18.36
2022-08-26T21:44:09.955Z,18.36
2022-08-26T21:46:18.800Z,18.37
2022-08-26T21:48:22.831Z,18.37
2022-08-26T21:50:30.567Z,18.36
2022-08-26T21:52:33.453Z,18.36
2022-08-26T21:54:36.159Z,18.37
2022-08-26T21:56:40.606Z,18.31
2022-08-26T21:58:43.769Z,18.39
2022-08-26T22:00:52.035Z,18.42
2022-08-26T22:02:54.789Z,18.43
2022-08-26T22:04:57.489Z,18.45
2022-08-26T22:07:00.216Z,18.40
2022-08-26T22:09:03.077Z,18.29
2022-08-26T22:11:06.431Z,18.28
2022-08-26T22:13:09.918Z,18.28
2022-08-26T22:15:13.280Z,18.32
2022-08-26T22:17:17.297Z,18.37
2022-08-26T22:19:20.903Z,18.23
2022-08-26T22:21:27.946Z,18.29
2022-08-26T22:23:30.679Z,18.37
2022-08-26T22:25:33.593Z,18.43
2022-08-26T22:27:40.402Z,18.38
2022-08-26T22:29:47.817Z,18.42
2022-08-26T22:31:50.516Z,18.42
2022-08-26T22:33:54.583Z,18.45
2022-08-26T22:35:57.436Z,18.40
2022-08-26T22:38:00.353Z,18.42
2022-08-26T22:40:03.358Z,18.48
2022-08-26T22:42:06.212Z,18.48
2022-08-26T22:44:08.990Z,18.60
2022-08-26T22:46:17.383Z,18.57
2022-08-26T22:48:21.931Z,18.55
2022-08-26T22:50:26.712Z,18.59
2022-08-26T22:52:29.920Z,18.56
2022-08-26T22:54:32.809Z,18.65
2022-08-26T22:56:36.011Z,18.70
2022-08-26T22:58:39.366Z,18.64
2022-08-26T23:00:42.419Z,18.74
2022-08-26T23:02:46.724Z,18.75
2022-08-26T23:04:50.437Z,18.75
2022-08-26T23:06:54.588Z,18.84
2022-08-26T23:08:57.317Z,18.79
2022-08-26T23:11:00.036Z,18.76
2022-08-26T23:13:04.101Z,18.79
2022-08-26T23:15:10.195Z,18.81
2022-08-26T23:17:14.301Z,18.78
2022-08-26T23:19:19.681Z,18.88
2022-08-26T23:21:22.681Z,18.82
2022-08-26T23:23:27.802Z,18.81
2022-08-26T23:25:32.315Z,18.82
2022-08-26T23:27:36.343Z,18.77
2022-08-26T23:29:39.651Z,18.65
2022-08-26T23:31:43.309Z,18.86
2022-08-26T23:34:03.338Z,18.82
2022-08-26T23:36:07.833Z,18.80
2022-08-26T23:38:14.128Z,18.73
2022-08-26T23:40:21.903Z,18.69
2022-08-26T23:42:24.648Z,18.71
2022-08-26T23:44:31.395Z,18.70
2022-08-26T23:46:35.188Z,18.74
2022-08-26T23:48:37.935Z,18.70
2022-08-26T23:50:58.359Z,18.66
2022-08-26T23:53:08.612Z,18.65
2022-08-26T23:55:11.927Z,18.66
2022-08-26T23:57:17.001Z,18.68
2022-08-26T23:59:19.930Z,18.80
